Cheraw, SC (29520)

11:36 PM EDT on August 31, 2015 (GMT -0400)
KSCCHERA3 | | Change Station
CLOSE
Current Station
Personal Weather Station
Location: Cheraw, SC
Elevation: 110 ft
Nearby Weather Stations

Elev 110 ft 34.70 °N, 79.90 °W | Updated 45 seconds ago

Clear
Clear
69.9 °F
Feels Like 69.9 °F
N
0.0
Wind Variable Wind from East
Gusts 0.0 mph

Today
High -- | Low -- °F
--% Chance of Precip.
Yesterday
High -- | Low -- °F
Precip. -- in
6:51 AM 7:47 PM
Waning Gibbous, 92% visible
Pressure 30.09 in
Visibility 9.0 miles
Clouds Clear
Dew Point 69 °F
Humidity 97%
Rainfall in
Snow Depth Not available.
UV 0 out of 12
Pollen 4.10 out of 12
Air Quality Not available.
Flu Activity Not available.
METAR KCQW 010315Z AUTO 00000KT 9SM CLR 20/20 A3009 RMK AO2
Pressure 30.09 in
Visibility 9.0 miles
Clouds Clear
Dew Point 69 °F
Humidity 97%
Rainfall in
Snow Depth Not available.
UV 0 out of 12
Pollen 4.10 out of 12
Air Quality Not available.
Flu Activity Not available.
METAR KCQW 010315Z AUTO 00000KT 9SM CLR 20/20 A3009 RMK AO2

10-Day Weather Forecast

×

Almanac

Astronomy

Aug. 31, 2015 Rise Set
Actual Time
Civil Twilight
Nautical Twilight
Astronomical Twilight
Moon
Length of Visible Light
Length of Day
Tomorrow will be .
, % of the Moon is Illuminated

Today's Extremes

State Highs State Lows

Community

WunderPhotos

Upload Photos

1,851,475 photos uploaded!

WunderBlogs® & News

Nearby

Air Quality

  Air Quality AQ Index Pollutant
Not available.

Snow Depth

Station Depth Elevation

Earthquake Activity

City Distance Mag. Time & Date
Minimum magnitude displayed is 2.5.

Coastal Water Temperatures

Place Temperature

Stations

Nearby Weather Stations

Station Location Temp. Windchill Dew Point Humidity Wind Precip. Elev Updated Type